createdAt,value
2017-11-20T00:02:09.441Z,45.80
2017-11-20T00:05:32.908Z,45.80
2017-11-20T00:08:57.144Z,45.70
2017-11-20T00:12:20.672Z,45.60
2017-11-20T00:15:44.143Z,45.80
2017-11-20T00:19:07.719Z,45.60
2017-11-20T00:22:32.064Z,45.90
2017-11-20T00:25:55.536Z,45.80
2017-11-20T00:29:19.107Z,45.90
2017-11-20T00:32:42.578Z,45.90
2017-11-20T00:36:06.281Z,46.50
2017-11-20T00:39:30.532Z,45.90
2017-11-20T00:42:54.001Z,45.90
2017-11-20T00:46:17.480Z,45.90
2017-11-20T00:49:40.986Z,46.00
2017-11-20T00:53:04.449Z,46.00
2017-11-20T00:56:27.911Z,45.80
2017-11-20T00:59:51.578Z,45.90
2017-11-20T01:03:15.038Z,45.90
2017-11-20T01:06:38.496Z,46.00
2017-11-20T01:10:01.993Z,45.90
2017-11-20T01:13:25.449Z,46.00
2017-11-20T01:16:48.941Z,46.30
2017-11-20T01:20:12.381Z,46.30
2017-11-20T01:23:35.852Z,46.20
2017-11-20T01:26:59.546Z,46.20
2017-11-20T01:30:23.044Z,46.20
2017-11-20T01:33:46.508Z,46.30
2017-11-20T01:37:10.024Z,46.30
2017-11-20T01:40:33.490Z,46.20
2017-11-20T01:43:57.728Z,46.20
2017-11-20T01:47:21.243Z,46.20
2017-11-20T01:50:45.451Z,46.10
2017-11-20T01:54:09.132Z,46.10
2017-11-20T01:57:33.498Z,46.20
2017-11-20T02:00:57.747Z,46.00
2017-11-20T02:04:21.210Z,46.00
2017-11-20T02:07:44.685Z,46.30
2017-11-20T02:11:08.263Z,46.20
2017-11-20T02:14:31.728Z,46.30
2017-11-20T02:17:55.214Z,46.30
2017-11-20T02:21:18.687Z,46.30
2017-11-20T02:24:42.135Z,46.30
2017-11-20T02:28:05.612Z,46.30
2017-11-20T02:31:29.066Z,46.40
2017-11-20T02:34:52.580Z,46.50
2017-11-20T02:38:16.060Z,46.40
2017-11-20T02:41:39.514Z,46.40
2017-11-20T02:45:03.001Z,46.40
2017-11-20T02:48:26.456Z,46.30
2017-11-20T02:51:49.916Z,46.50
2017-11-20T02:55:13.368Z,46.40
2017-11-20T02:58:36.827Z,46.50
2017-11-20T03:02:00.404Z,46.50
2017-11-20T03:05:23.883Z,46.50
2017-11-20T03:08:47.345Z,46.50
2017-11-20T03:12:10.831Z,46.60
2017-11-20T03:15:34.295Z,46.50
2017-11-20T03:18:57.753Z,46.60
2017-11-20T03:22:21.223Z,46.70
2017-11-20T03:25:44.745Z,46.70
2017-11-20T03:29:08.207Z,46.60
2017-11-20T03:32:31.695Z,46.80
2017-11-20T03:35:55.151Z,46.80
2017-11-20T03:39:18.631Z,46.80
2017-11-20T03:42:42.089Z,46.80
2017-11-20T03:46:05.555Z,46.80
2017-11-20T03:49:29.016Z,46.90
2017-11-20T03:52:52.502Z,46.90
2017-11-20T03:56:15.992Z,46.80
2017-11-20T03:59:39.463Z,46.80
2017-11-20T04:03:02.935Z,47.00
2017-11-20T04:06:26.387Z,46.70
2017-11-20T04:09:49.862Z,46.50
2017-11-20T04:13:13.348Z,46.50
2017-11-20T04:16:36.804Z,46.20
2017-11-20T04:20:00.272Z,45.80
2017-11-20T04:23:23.772Z,46.60
2017-11-20T04:26:47.231Z,46.10
2017-11-20T04:30:10.696Z,45.80
2017-11-20T04:33:34.311Z,45.10
2017-11-20T04:36:58.668Z,44.90
2017-11-20T04:40:22.151Z,44.80
2017-11-20T04:43:45.611Z,44.80
2017-11-20T04:47:09.156Z,45.10
2017-11-20T04:50:32.648Z,45.00
2017-11-20T04:53:56.115Z,45.30
2017-11-20T04:57:19.748Z,45.20
2017-11-20T05:00:43.215Z,45.20
2017-11-20T05:04:07.429Z,43.60
2017-11-20T05:07:30.925Z,43.60
2017-11-20T05:10:54.383Z,42.70
2017-11-20T05:14:17.900Z,41.70
2017-11-20T05:17:42.243Z,40.00
2017-11-20T05:21:05.716Z,40.00
2017-11-20T05:24:29.200Z,39.20
2017-11-20T05:27:52.684Z,38.40
2017-11-20T05:31:16.135Z,37.60
2017-11-20T05:34:39.662Z,37.00
2017-11-20T05:38:03.144Z,36.70
2017-11-20T05:41:26.678Z,36.30
2017-11-20T05:44:50.159Z,36.20
2017-11-20T05:48:15.316Z,36.30
2017-11-20T05:51:38.792Z,35.60
2017-11-20T05:55:02.249Z,35.50
2017-11-20T05:58:25.744Z,35.60
2017-11-20T06:01:49.220Z,35.40
2017-11-20T06:05:12.691Z,35.80
2017-11-20T06:08:36.149Z,35.40
2017-11-20T06:11:59.726Z,35.30
2017-11-20T06:15:23.222Z,35.20
2017-11-20T06:18:47.520Z,35.40
2017-11-20T06:22:11.008Z,35.40
2017-11-20T06:25:34.463Z,35.20
2017-11-20T06:28:58.555Z,35.30
2017-11-20T06:32:22.188Z,35.40
2017-11-20T06:35:45.689Z,35.10
2017-11-20T06:39:09.186Z,35.10
2017-11-20T06:42:32.650Z,35.00
2017-11-20T06:45:56.101Z,34.90
2017-11-20T06:49:19.563Z,34.70
2017-11-20T06:52:43.039Z,35.00
2017-11-20T06:56:06.582Z,35.00
2017-11-20T06:59:30.121Z,34.90
2017-11-20T07:02:53.596Z,35.60
2017-11-20T07:06:17.108Z,35.00
2017-11-20T07:09:41.509Z,34.80
2017-11-20T07:13:05.754Z,34.90
2017-11-20T07:16:29.331Z,34.90
2017-11-20T07:19:52.816Z,34.70
2017-11-20T07:23:16.308Z,34.90
2017-11-20T07:26:51.715Z,34.80
2017-11-20T07:30:27.152Z,34.70
2017-11-20T07:34:03.513Z,34.80
2017-11-20T07:37:38.892Z,34.80
2017-11-20T07:41:05.328Z,35.00
2017-11-20T07:44:28.845Z,35.10
2017-11-20T07:47:52.292Z,34.90
2017-11-20T07:51:15.778Z,34.80
2017-11-20T07:54:39.332Z,34.50
2017-11-20T07:58:02.828Z,35.20
2017-11-20T08:01:27.079Z,35.00
2017-11-20T08:04:50.571Z,35.00
2017-11-20T08:08:14.043Z,35.10
2017-11-20T08:11:38.295Z,35.00
2017-11-20T08:15:01.762Z,34.90
2017-11-20T08:18:25.223Z,34.80
2017-11-20T08:21:48.853Z,35.00
2017-11-20T08:25:12.323Z,34.80
2017-11-20T08:28:35.790Z,34.80
2017-11-20T08:32:00.074Z,34.70
2017-11-20T08:35:23.545Z,34.70
2017-11-20T08:38:47.179Z,34.60
2017-11-20T08:42:10.646Z,34.70
2017-11-20T08:45:34.136Z,34.50
2017-11-20T08:48:57.643Z,34.60
2017-11-20T08:52:22.649Z,34.40
2017-11-20T08:55:46.123Z,34.30
2017-11-20T08:59:09.576Z,34.60
2017-11-20T09:02:33.054Z,34.50
2017-11-20T09:05:56.574Z,34.30
2017-11-20T09:09:20.931Z,34.40
2017-11-20T09:12:44.398Z,34.40
2017-11-20T09:16:07.885Z,34.20
2017-11-20T09:19:31.371Z,34.30
2017-11-20T09:22:55.756Z,34.20
2017-11-20T09:26:19.226Z,34.20
2017-11-20T09:29:44.228Z,34.40
2017-11-20T09:33:07.731Z,34.40
2017-11-20T09:36:32.052Z,34.20
2017-11-20T09:39:55.508Z,34.20
2017-11-20T09:43:19.016Z,34.40
2017-11-20T09:46:42.499Z,35.30
2017-11-20T09:50:05.968Z,34.50
2017-11-20T09:53:29.524Z,34.40
2017-11-20T09:56:53.119Z,34.50
2017-11-20T10:00:16.653Z,34.40
2017-11-20T10:03:40.104Z,35.00
2017-11-20T10:07:03.589Z,34.50
2017-11-20T10:10:27.058Z,34.80
2017-11-20T10:13:50.536Z,34.70
2017-11-20T10:17:14.011Z,34.70
2017-11-20T10:20:37.499Z,34.90
2017-11-20T10:24:00.977Z,35.10
2017-11-20T10:27:24.484Z,35.10
2017-11-20T10:30:48.709Z,35.30
2017-11-20T10:34:12.221Z,35.30
2017-11-20T10:37:35.679Z,35.30
2017-11-20T10:40:59.168Z,35.30
2017-11-20T10:44:22.636Z,35.40
2017-11-20T10:47:46.105Z,35.40
2017-11-20T10:51:10.304Z,35.60
2017-11-20T10:54:33.799Z,35.60
2017-11-20T10:57:57.286Z,35.60
2017-11-20T11:01:20.747Z,35.80
2017-11-20T11:04:44.971Z,35.80
2017-11-20T11:08:08.576Z,35.70
2017-11-20T11:11:32.049Z,35.70
2017-11-20T11:14:55.524Z,35.70
2017-11-20T11:18:19.007Z,35.90
2017-11-20T11:21:42.604Z,35.80
2017-11-20T11:25:06.868Z,35.80
2017-11-20T11:28:30.353Z,35.80
2017-11-20T11:31:53.821Z,36.00
2017-11-20T11:35:17.292Z,35.80
2017-11-20T11:38:40.766Z,35.90
2017-11-20T11:42:04.279Z,36.00
2017-11-20T11:45:27.894Z,36.20
2017-11-20T11:48:51.348Z,36.60
2017-11-20T11:52:14.824Z,36.10
2017-11-20T11:55:38.449Z,36.10
2017-11-20T11:59:01.943Z,36.20
2017-11-20T12:02:25.579Z,36.30
2017-11-20T12:05:49.091Z,36.10
2017-11-20T12:09:12.570Z,36.10
2017-11-20T12:12:36.067Z,36.30
2017-11-20T12:15:59.548Z,36.00
2017-11-20T12:19:23.047Z,36.00
2017-11-20T12:22:46.556Z,36.10
2017-11-20T12:26:10.027Z,36.30
2017-11-20T12:29:33.506Z,36.10
2017-11-20T12:32:57.032Z,36.30
2017-11-20T12:36:20.551Z,36.40
2017-11-20T12:39:44.058Z,36.60
2017-11-20T12:43:07.780Z,36.50
2017-11-20T12:46:32.024Z,37.40
2017-11-20T12:49:55.510Z,36.70
2017-11-20T12:53:18.983Z,37.10
2017-11-20T12:56:42.463Z,37.20
2017-11-20T13:00:05.937Z,37.20
2017-11-20T13:03:30.190Z,37.50
2017-11-20T13:06:53.748Z,37.40
2017-11-20T13:10:17.374Z,37.60
2017-11-20T13:13:40.884Z,37.30
2017-11-20T13:17:04.374Z,37.30
2017-11-20T13:20:28.067Z,37.40
2017-11-20T13:23:51.537Z,37.50
2017-11-20T13:27:15.045Z,37.30
2017-11-20T13:30:39.307Z,37.60
2017-11-20T13:34:04.332Z,37.30
2017-11-20T13:37:29.311Z,37.40
2017-11-20T13:40:52.790Z,37.40
2017-11-20T13:44:16.291Z,37.20
2017-11-20T13:47:39.834Z,37.30
2017-11-20T13:51:03.290Z,37.40
2017-11-20T13:54:26.758Z,37.50
2017-11-20T13:57:50.329Z,37.50
2017-11-20T14:01:14.559Z,37.40
2017-11-20T14:04:38.042Z,37.30
2017-11-20T14:08:01.744Z,37.40
2017-11-20T14:11:25.259Z,38.00
2017-11-20T14:14:48.820Z,37.40
2017-11-20T14:18:12.284Z,37.50
2017-11-20T14:21:35.974Z,37.60
2017-11-20T14:24:59.463Z,37.70
2017-11-20T14:28:22.958Z,37.70
2017-11-20T14:31:46.482Z,37.70
2017-11-20T14:35:10.016Z,37.70
2017-11-20T14:38:33.483Z,37.90
2017-11-20T14:41:57.719Z,38.00
2017-11-20T14:45:21.186Z,38.00
2017-11-20T14:48:44.700Z,38.00
2017-11-20T14:52:09.670Z,38.30
2017-11-20T14:55:33.129Z,38.20
2017-11-20T14:58:56.629Z,38.50
2017-11-20T15:02:20.147Z,39.10
2017-11-20T15:05:44.413Z,38.40
2017-11-20T15:09:07.865Z,38.40
2017-11-20T15:12:31.367Z,38.50
2017-11-20T15:15:54.876Z,38.60
2017-11-20T15:19:18.376Z,39.00
2017-11-20T15:22:43.005Z,38.40
2017-11-20T15:26:08.022Z,38.50
2017-11-20T15:29:31.742Z,38.50
2017-11-20T15:32:55.210Z,38.60
2017-11-20T15:36:18.680Z,38.50
2017-11-20T15:39:42.165Z,38.40
2017-11-20T15:43:05.684Z,38.50
2017-11-20T15:46:29.948Z,38.30
2017-11-20T15:49:53.649Z,38.30
2017-11-20T15:53:18.796Z,38.40
2017-11-20T15:56:43.030Z,38.60
2017-11-20T16:00:06.645Z,38.50
2017-11-20T16:03:30.883Z,38.30
2017-11-20T16:06:54.403Z,38.30
2017-11-20T16:10:18.038Z,38.30
2017-11-20T16:13:41.515Z,38.40
2017-11-20T16:17:05.001Z,38.50
2017-11-20T16:20:29.165Z,38.40
2017-11-20T16:23:52.622Z,38.40
2017-11-20T16:27:16.180Z,38.30
2017-11-20T16:30:39.648Z,38.40
2017-11-20T16:34:03.161Z,38.50
2017-11-20T16:37:26.770Z,38.40
2017-11-20T16:40:51.061Z,38.60
2017-11-20T16:44:15.307Z,38.60
2017-11-20T16:47:38.986Z,38.60
2017-11-20T16:51:02.476Z,38.40
2017-11-20T16:54:25.948Z,38.40
2017-11-20T16:58:01.309Z,38.50
2017-11-20T17:01:37.519Z,38.20
2017-11-20T17:05:01.140Z,38.20
2017-11-20T17:08:24.627Z,38.20
2017-11-20T17:11:49.639Z,38.10
2017-11-20T17:15:13.121Z,38.10
2017-11-20T17:18:36.604Z,38.10
2017-11-20T17:22:00.117Z,38.00
2017-11-20T17:25:23.628Z,38.40
2017-11-20T17:28:47.893Z,38.40
2017-11-20T17:32:12.290Z,37.80
2017-11-20T17:35:35.772Z,37.90
2017-11-20T17:39:00.876Z,37.60
2017-11-20T17:42:24.383Z,37.60
2017-11-20T17:45:48.664Z,37.60
2017-11-20T17:49:12.137Z,37.60
2017-11-20T17:52:35.615Z,37.80
2017-11-20T17:55:59.861Z,37.50
2017-11-20T17:59:23.321Z,37.50
2017-11-20T18:02:46.840Z,37.60
2017-11-20T18:06:11.343Z,37.70
2017-11-20T18:09:36.320Z,37.50
2017-11-20T18:13:01.333Z,37.60
2017-11-20T18:16:24.825Z,37.60
2017-11-20T18:19:49.101Z,37.70
2017-11-20T18:23:14.109Z,37.90
2017-11-20T18:26:39.091Z,37.90
2017-11-20T18:30:02.612Z,37.80
2017-11-20T18:33:26.075Z,38.00
2017-11-20T18:36:49.580Z,38.00
2017-11-20T18:40:13.091Z,38.90
2017-11-20T18:43:36.584Z,38.30
2017-11-20T18:47:01.786Z,39.00
2017-11-20T18:50:25.294Z,39.00
2017-11-20T18:53:49.602Z,40.30
2017-11-20T18:57:13.141Z,40.30
2017-11-20T19:00:48.635Z,41.20
2017-11-20T19:04:24.091Z,41.80
2017-11-20T19:07:59.548Z,42.60
2017-11-20T19:11:23.071Z,43.50
2017-11-20T19:14:46.564Z,43.90
2017-11-20T19:18:10.024Z,44.20
2017-11-20T19:21:34.259Z,44.60
2017-11-20T19:24:57.764Z,44.40
2017-11-20T19:28:21.261Z,44.60
2017-11-20T19:31:45.713Z,44.90
2017-11-20T19:35:09.214Z,44.90
2017-11-20T19:38:33.476Z,45.30
2017-11-20T19:41:57.158Z,45.30
2017-11-20T19:45:20.664Z,45.50
2017-11-20T19:48:44.917Z,46.20
2017-11-20T19:52:08.429Z,45.90
2017-11-20T19:55:32.729Z,45.30
2017-11-20T19:58:56.205Z,45.20
2017-11-20T20:02:19.792Z,45.20
2017-11-20T20:05:43.283Z,45.10
2017-11-20T20:09:06.776Z,44.30
2017-11-20T20:12:36.196Z,44.10
2017-11-20T20:16:18.321Z,43.70
2017-11-20T20:19:47.858Z,43.60
2017-11-20T20:23:17.473Z,43.10
2017-11-20T20:26:47.123Z,42.80
2017-11-20T20:30:16.471Z,42.60
2017-11-20T20:33:46.086Z,42.10
2017-11-20T20:37:16.290Z,41.80
2017-11-20T20:40:45.622Z,41.80
2017-11-20T20:44:15.210Z,41.70
2017-11-20T20:47:44.729Z,41.40
2017-11-20T20:51:08.227Z,41.20
2017-11-20T20:54:32.705Z,41.10
2017-11-20T20:57:56.213Z,41.10
2017-11-20T21:01:19.747Z,41.10
2017-11-20T21:04:43.381Z,40.80
2017-11-20T21:08:06.911Z,40.80
2017-11-20T21:11:36.091Z,40.80
2017-11-20T21:15:00.462Z,41.00
2017-11-20T21:18:24.647Z,41.20
2017-11-20T21:37:20.327Z,42.60
2017-11-20T21:40:43.818Z,42.90
2017-11-20T21:44:08.164Z,43.60
2017-11-20T21:47:31.613Z,44.20
2017-11-20T21:50:55.095Z,43.80
2017-11-20T21:54:18.858Z,44.10
2017-11-20T21:57:43.071Z,44.40
2017-11-20T22:01:06.579Z,44.30
2017-11-20T22:04:30.122Z,44.50
2017-11-20T22:07:53.623Z,44.80
2017-11-20T22:11:18.623Z,44.90
2017-11-20T22:14:42.152Z,44.90
2017-11-20T22:18:05.598Z,45.20
2017-11-20T22:21:29.869Z,45.40
2017-11-20T22:24:53.364Z,45.40
2017-11-20T22:28:17.612Z,45.70
2017-11-20T22:31:41.106Z,45.70
2017-11-20T22:35:04.668Z,45.70
2017-11-20T22:38:28.156Z,45.80
2017-11-20T22:41:52.394Z,46.30
2017-11-20T22:45:15.844Z,46.00
2017-11-20T22:48:39.303Z,46.10
2017-11-20T22:52:03.551Z,46.20
2017-11-20T22:55:27.108Z,46.20
2017-11-20T22:58:51.417Z,46.40
2017-11-20T23:02:14.992Z,46.40
2017-11-20T23:05:38.475Z,46.50
2017-11-20T23:09:01.996Z,46.50
2017-11-20T23:12:25.433Z,46.60
2017-11-20T23:15:49.719Z,46.70
2017-11-20T23:19:13.179Z,46.70
2017-11-20T23:30:23.280Z,46.80
2017-11-20T23:33:46.824Z,46.80
2017-11-20T23:37:10.411Z,46.90
2017-11-20T23:59:54.292Z,47.10
